Time;durP1;ratioP1;P1;durP2;ratioP2;P2;SDS_P1;SDS_P2;PMS_P1;PMS_P2;Temp;Humidity;BMP_temperature;BMP_pressure;BME280_temperature;BME280_humidity;BME280_pressure;Samples;Min_cycle;Max_cycle;Signal;HPM_P1;HPM_P2
2021/11/14 00:01:00;;;;;;;45.55;24.00;;;;;;;1.64;100.00;101371.73;1745744;82;21337;-77
2021/11/14 00:04:06;;;;;;;46.95;23.75;;;;;;;1.64;100.00;101376.27;1746628;82;21357;-75
2021/11/14 00:07:13;;;;;;;33.38;18.77;;;;;;;1.62;100.00;101374.16;1746319;82;21196;-76
2021/11/14 00:10:18;;;;;;;34.00;20.37;;;;;;;1.50;100.00;101378.45;1744669;82;21361;-76
2021/11/14 00:13:24;;;;;;;38.67;21.93;;;;;;;1.35;100.00;101374.84;1744841;82;21301;-76
2021/11/14 00:16:30;;;;;;;46.65;23.42;;;;;;;1.26;100.00;101376.25;1745355;80;21899;-76
2021/11/14 00:19:35;;;;;;;40.78;23.22;;;;;;;1.19;100.00;101380.28;1749755;80;21270;-76
2021/11/14 00:22:41;;;;;;;43.63;23.35;;;;;;;1.17;100.00;101379.48;1724767;83;21178;-76
2021/11/14 00:25:48;;;;;;;42.53;21.77;;;;;;;1.21;100.00;101374.80;1755832;81;21198;-75
2021/11/14 00:28:54;;;;;;;39.95;21.30;;;;;;;1.25;100.00;101372.31;1726083;83;21852;-76
2021/11/14 00:31:59;;;;;;;38.17;20.85;;;;;;;1.31;100.00;101370.59;1738504;80;21201;-76
2021/11/14 00:35:04;;;;;;;37.83;22.22;;;;;;;1.34;100.00;101370.91;1788863;80;21350;-75
2021/11/14 00:38:09;;;;;;;50.08;23.95;;;;;;;1.31;100.00;101364.33;1787199;80;21302;-76
2021/11/14 00:41:15;;;;;;;42.15;23.83;;;;;;;1.33;100.00;101357.91;1788113;80;21214;-76
2021/11/14 00:44:21;;;;;;;30.95;19.45;;;;;;;1.36;100.00;101357.70;1788857;80;21703;-76
2021/11/14 00:47:26;;;;;;;42.55;22.02;;;;;;;1.36;100.00;101360.88;1766175;80;21801;-75
2021/11/14 00:50:33;;;;;;;39.30;21.87;;;;;;;1.33;100.00;101351.17;1742449;82;21286;-76
2021/11/14 00:53:38;;;;;;;35.50;22.15;;;;;;;1.33;100.00;101362.44;1742356;82;21357;-76
2021/11/14 00:56:44;;;;;;;42.55;22.65;;;;;;;1.32;100.00;101352.59;1741066;82;21317;-75
2021/11/14 00:59:49;;;;;;;37.38;20.50;;;;;;;1.28;100.00;101360.88;1741945;82;21916;-75
2021/11/14 01:02:55;;;;;;;35.00;19.00;;;;;;;1.20;100.00;101361.80;1740771;80;21361;-75
2021/11/14 01:06:02;;;;;;;37.90;20.92;;;;;;;1.13;100.00;101359.55;1742270;82;21774;-76
2021/11/14 01:09:07;;;;;;;37.65;21.97;;;;;;;1.06;100.00;101357.70;1742990;82;21325;-76
2021/11/14 01:12:13;;;;;;;41.15;22.25;;;;;;;0.99;100.00;101360.39;1741416;82;21302;-76
2021/11/14 01:15:20;;;;;;;33.58;20.23;;;;;;;0.94;100.00;101360.66;1742139;82;21671;-76
2021/11/14 01:18:26;;;;;;;35.78;20.27;;;;;;;0.92;100.00;101364.38;1757355;81;21293;-76
2021/11/14 01:21:32;;;;;;;36.23;20.52;;;;;;;0.85;100.00;101365.67;1757392;81;21339;-76
2021/11/14 01:24:38;;;;;;;33.67;21.87;;;;;;;0.80;100.00;101368.66;1756428;81;21191;-75
2021/11/14 01:27:46;;;;;;;37.00;19.82;;;;;;;0.77;100.00;101370.17;1756423;81;21298;-76
2021/11/14 01:30:56;;;;;;;33.45;18.80;;;;;;;0.76;100.00;101373.34;1775723;80;21338;-76
2021/11/14 01:34:01;;;;;;;37.20;20.40;;;;;;;0.75;100.00;101367.58;1776185;80;21299;-75
2021/11/14 01:37:06;;;;;;;31.70;18.50;;;;;;;0.74;100.00;101371.69;1776007;80;21576;-76
2021/11/14 01:40:14;;;;;;;33.53;20.17;;;;;;;0.73;100.00;101367.27;1777893;80;21197;-76
2021/11/14 01:43:22;;;;;;;27.05;16.50;;;;;;;0.71;100.00;101364.67;1779103;80;21893;-76
2021/11/14 01:46:27;;;;;;;32.00;17.70;;;;;;;0.70;100.00;101376.37;1777984;80;21193;-76
2021/11/14 01:49:33;;;;;;;30.57;16.77;;;;;;;0.67;100.00;101367.62;1719492;83;21283;-76
2021/11/14 01:52:39;;;;;;;29.10;18.07;;;;;;;0.64;100.00;101371.34;1748388;79;21806;-76
2021/11/14 01:55:43;;;;;;;31.12;17.82;;;;;;;0.59;100.00;101369.39;1718574;83;21388;-76
2021/11/14 01:58:49;;;;;;;30.62;18.62;;;;;;;0.55;100.00;101370.99;1718856;83;21356;-76
2021/11/14 02:01:55;;;;;;;31.52;17.85;;;;;;;0.48;100.00;101367.80;1718189;82;21634;-76
2021/11/14 02:05:00;;;;;;;35.08;18.57;;;;;;;0.44;100.00;101368.91;1720326;83;21310;-75
2021/11/14 02:08:06;;;;;;;35.38;17.30;;;;;;;0.39;100.00;101366.48;1750058;82;21191;-75
2021/11/14 02:11:14;;;;;;;31.02;19.00;;;;;;;0.40;100.00;101371.38;1720515;83;21303;-76
2021/11/14 02:14:19;;;;;;;33.28;20.25;;;;;;;0.38;100.00;101374.65;1750995;82;21277;-76
2021/11/14 02:17:25;;;;;;;38.15;19.17;;;;;;;0.34;100.00;101379.33;1727059;82;21380;-76
2021/11/14 02:20:31;;;;;;;32.45;18.40;;;;;;;0.30;100.00;101382.27;1735487;82;21304;-75
2021/11/14 02:23:37;;;;;;;29.85;18.37;;;;;;;0.26;100.00;101384.25;1774534;81;21608;-75
2021/11/14 02:26:42;;;;;;;27.40;17.73;;;;;;;0.20;100.00;101384.12;1743805;82;21314;-76
2021/11/14 02:29:47;;;;;;;25.35;16.02;;;;;;;0.15;100.00;101394.27;1773911;81;21211;-76
2021/11/14 02:32:53;;;;;;;29.50;17.90;;;;;;;0.09;100.00;101392.36;1773834;79;21203;-76
2021/11/14 02:36:02;;;;;;;30.25;18.02;;;;;;;0.03;100.00;101398.09;1743396;82;21304;-76
2021/11/14 02:39:07;;;;;;;30.62;18.02;;;;;;;-0.02;100.00;101392.95;1775426;81;21179;-76
2021/11/14 02:42:13;;;;;;;26.82;14.83;;;;;;;-0.05;100.00;101393.10;1775441;81;21883;-76
2021/11/14 02:45:19;;;;;;;27.60;17.45;;;;;;;-0.08;100.00;101397.33;1775703;81;21816;-76
2021/11/14 02:48:25;;;;;;;31.10;18.30;;;;;;;-0.14;100.00;101396.28;1775126;81;21885;-75
2021/11/14 02:51:33;;;;;;;27.55;17.32;;;;;;;-0.18;100.00;101384.84;1775370;81;21310;-76
2021/11/14 02:54:39;;;;;;;32.70;17.82;;;;;;;-0.18;100.00;101392.05;1775668;81;21314;-76
2021/11/14 02:57:44;;;;;;;30.50;18.52;;;;;;;-0.26;100.00;101394.65;1775601;81;21832;-76
2021/11/14 03:01:03;;;;;;;31.93;19.30;;;;;;;-0.32;100.00;101397.67;1774062;81;21302;-76
2021/11/14 03:04:08;;;;;;;30.10;17.87;;;;;;;-0.33;100.00;101392.34;1775826;81;21425;-76
2021/11/14 03:07:13;;;;;;;33.33;17.57;;;;;;;-0.31;100.00;101394.02;1775496;81;21871;-76
2021/11/14 03:10:20;;;;;;;29.05;17.62;;;;;;;-0.31;100.00;101395.84;1773827;81;21381;-75
2021/11/14 03:13:27;;;;;;;31.52;17.75;;;;;;;-0.35;100.00;101396.95;1775464;81;21222;-76
2021/11/14 03:16:34;;;;;;;35.95;19.77;;;;;;;-0.37;100.00;101403.77;1773150;81;21187;-76
2021/11/14 03:19:39;;;;;;;36.70;20.57;;;;;;;-0.39;100.00;101403.43;1719831;83;21378;-76
2021/11/14 03:22:45;;;;;;;30.02;17.82;;;;;;;-0.41;100.00;101399.48;1733509;82;21219;-76
2021/11/14 03:25:51;;;;;;;29.42;17.37;;;;;;;-0.44;100.00;101396.95;1749003;82;21275;-76
2021/11/14 03:28:57;;;;;;;31.33;19.85;;;;;;;-0.46;100.00;101403.37;1748896;82;21370;-76
2021/11/14 03:32:04;;;;;;;34.25;19.85;;;;;;;-0.49;100.00;101395.45;1749202;81;21680;-76
2021/11/14 03:35:09;;;;;;;39.50;20.10;;;;;;;-0.55;100.00;101393.95;1723545;83;21365;-75
2021/11/14 03:38:15;;;;;;;37.88;18.70;;;;;;;-0.55;100.00;101393.95;1754797;81;21316;-76
2021/11/14 03:41:25;;;;;;;27.20;16.87;;;;;;;-0.53;100.00;101393.39;1723582;83;21310;-76
2021/11/14 03:44:31;;;;;;;27.70;18.57;;;;;;;-0.54;100.00;101392.53;1754055;81;21891;-76
2021/11/14 03:47:37;;;;;;;32.70;19.15;;;;;;;-0.59;100.00;101388.34;1740733;81;21302;-75
2021/11/14 03:50:42;;;;;;;37.45;18.85;;;;;;;-0.64;100.00;101385.02;1749887;82;21319;-76
2021/11/14 03:53:48;;;;;;;27.98;14.45;;;;;;;-0.69;100.00;101385.73;1786224;80;21344;-76
2021/11/14 03:56:54;;;;;;;29.85;17.52;;;;;;;-0.71;100.00;101384.92;1784648;80;21297;-75
2021/11/14 03:59:59;;;;;;;38.55;20.80;;;;;;;-0.73;100.00;101386.83;1784514;80;21298;-76
2021/11/14 04:03:05;;;;;;;40.98;21.62;;;;;;;-0.73;100.00;101381.46;1784534;80;21310;-76
2021/11/14 04:06:12;;;;;;;34.10;19.52;;;;;;;-0.68;100.00;101390.16;1785983;80;21389;-75
2021/11/14 04:09:17;;;;;;;34.40;19.80;;;;;;;-0.65;100.00;101386.84;1786135;80;21294;-76
2021/11/14 04:12:22;;;;;;;38.08;20.12;;;;;;;-0.65;100.00;101392.22;1784554;80;21749;-75
2021/11/14 04:15:28;;;;;;;38.78;22.02;;;;;;;-0.67;100.00;101390.55;1784559;80;21297;-76
2021/11/14 04:18:33;;;;;;;35.63;20.40;;;;;;;-0.72;100.00;101391.25;1784544;80;21710;-76
2021/11/14 04:21:39;;;;;;;35.00;21.02;;;;;;;-0.73;100.00;101393.55;1784841;80;21239;-76
2021/11/14 04:24:44;;;;;;;33.58;18.95;;;;;;;-0.74;100.00;101392.69;1785056;80;21935;-75
2021/11/14 04:27:50;;;;;;;36.95;21.40;;;;;;;-0.72;100.00;101399.31;1786300;80;21349;-76
2021/11/14 04:30:57;;;;;;;37.38;22.05;;;;;;;-0.70;100.00;101399.64;1786202;80;21405;-75
2021/11/14 04:34:02;;;;;;;35.30;21.23;;;;;;;-0.67;100.00;101396.78;1786156;80;21596;-76
2021/11/14 04:37:07;;;;;;;40.30;21.70;;;;;;;-0.65;100.00;101406.13;1786323;80;21290;-75
2021/11/14 04:40:15;;;;;;;43.10;22.93;;;;;;;-0.65;100.00;101409.69;1786128;80;21793;-76
2021/11/14 04:43:21;;;;;;;39.33;22.60;;;;;;;-0.63;100.00;101412.28;1787327;80;21251;-76
2021/11/14 04:46:27;;;;;;;35.75;20.82;;;;;;;-0.60;100.00;101421.55;1785084;80;21282;-76
2021/11/14 04:49:31;;;;;;;36.68;18.12;;;;;;;-0.55;100.00;101426.21;1755393;81;21391;-75
2021/11/14 04:52:36;;;;;;;34.15;19.15;;;;;;;-0.55;100.00;101431.11;1725361;83;21334;-76
2021/11/14 04:55:42;;;;;;;36.63;18.27;;;;;;;-0.60;100.00;101440.36;1746337;82;21920;-76
2021/11/14 04:58:48;;;;;;;37.78;20.32;;;;;;;-0.66;100.00;101440.20;1785110;80;21577;-75
2021/11/14 05:01:54;;;;;;;35.95;21.93;;;;;;;-0.71;100.00;101449.41;1753464;81;21311;-75
2021/11/14 05:05:01;;;;;;;37.48;22.42;;;;;;;-0.74;100.00;101449.59;1782725;80;21200;-76
2021/11/14 05:08:06;;;;;;;40.15;23.15;;;;;;;-0.74;100.00;101454.95;1753186;82;21314;-76
2021/11/14 05:11:11;;;;;;;38.60;19.95;;;;;;;-0.69;100.00;101460.97;1780858;80;21263;-76
2021/11/14 05:14:16;;;;;;;37.60;22.95;;;;;;;-0.60;100.00;101467.23;1799962;79;21829;-76
2021/11/14 05:17:22;;;;;;;38.95;22.35;;;;;;;-0.54;100.00;101466.44;1778893;79;21967;-76
2021/11/14 05:20:27;;;;;;;38.70;21.75;;;;;;;-0.48;100.00;101466.59;1755025;81;21437;-76
2021/11/14 05:23:33;;;;;;;43.10;22.20;;;;;;;-0.50;100.00;101472.53;1725164;83;21322;-76
2021/11/14 05:26:38;;;;;;;46.13;24.32;;;;;;;-0.50;100.00;101479.73;1749028;80;21334;-75
2021/11/14 05:29:44;;;;;;;38.28;21.97;;;;;;;-0.47;100.00;101477.77;1755230;81;21192;-76
2021/11/14 05:32:49;;;;;;;33.80;20.17;;;;;;;-0.40;100.00;101476.50;1754897;81;21848;-76
2021/11/14 05:35:55;;;;;;;43.15;24.67;;;;;;;-0.36;100.00;101487.49;1804579;79;21315;-76
2021/11/14 05:39:01;;;;;;;42.85;24.23;;;;;;;-0.29;100.00;101481.31;1783006;80;21366;-76
2021/11/14 05:42:06;;;;;;;49.00;24.20;;;;;;;-0.18;100.00;101484.83;1782866;80;21295;-75
2021/11/14 05:45:11;;;;;;;48.75;26.00;;;;;;;-0.08;100.00;101492.80;1782667;80;21958;-76
2021/11/14 05:48:17;;;;;;;50.73;24.92;;;;;;;-0.03;100.00;101488.92;1753533;80;21951;-76
2021/11/14 05:51:23;;;;;;;47.30;23.22;;;;;;;0.02;100.00;101481.95;1746129;82;21326;-76
2021/11/14 05:54:28;;;;;;;44.15;22.75;;;;;;;0.07;100.00;101482.58;1746648;82;21306;-76
2021/11/14 05:57:45;;;;;;;45.05;23.45;;;;;;;0.13;100.00;101488.11;1746683;82;22221;-76
2021/11/14 06:00:50;;;;;;;42.40;22.93;;;;;;;0.20;100.00;101486.38;1746675;82;21301;-76
2021/11/14 06:07:12;;;;;;;37.85;21.27;;;;;;;0.38;100.00;101494.42;1745100;82;21369;-76
2021/11/14 06:10:18;;;;;;;51.33;24.75;;;;;;;0.44;100.00;101496.30;1746634;82;21829;-76
2021/11/14 06:13:23;;;;;;;48.92;24.72;;;;;;;0.50;100.00;101492.40;1746482;82;21211;-76
2021/11/14 06:16:29;;;;;;;47.35;24.65;;;;;;;0.59;100.00;101496.42;1745983;80;21350;-76
2021/11/14 06:19:34;;;;;;;40.38;23.18;;;;;;;0.64;100.00;101489.83;1746931;82;21294;-76
2021/11/14 06:22:40;;;;;;;36.15;20.62;;;;;;;0.71;100.00;101497.11;1746179;82;21345;-76
2021/11/14 06:25:46;;;;;;;43.83;22.05;;;;;;;0.76;100.00;101494.55;1747474;80;21654;-75
2021/11/14 06:28:51;;;;;;;41.28;23.45;;;;;;;0.85;100.00;101498.56;1725932;83;21336;-76
2021/11/14 06:31:56;;;;;;;50.08;24.00;;;;;;;0.93;100.00;101494.94;1731226;82;21351;-75
2021/11/14 06:35:02;;;;;;;41.75;23.22;;;;;;;1.01;100.00;101492.69;1755947;81;21869;-76
2021/11/14 06:38:08;;;;;;;41.45;21.85;;;;;;;1.13;100.00;101488.45;1754861;81;21921;-76
2021/11/14 06:41:15;;;;;;;38.38;22.32;;;;;;;1.23;100.00;101485.62;1753443;82;21802;-75
2021/11/14 06:44:20;;;;;;;44.18;23.10;;;;;;;1.34;100.00;101475.55;1756235;81;21287;-76
2021/11/14 06:47:26;;;;;;;40.67;24.18;;;;;;;1.43;100.00;101475.51;1749977;81;21215;-75
2021/11/14 06:50:33;;;;;;;41.60;23.62;;;;;;;1.53;100.00;101477.56;1733141;82;21302;-75
2021/11/14 06:53:38;;;;;;;39.75;23.55;;;;;;;1.61;100.00;101474.43;1734013;82;21329;-76
2021/11/14 06:56:45;;;;;;;42.03;22.80;;;;;;;1.67;100.00;101476.75;1733806;82;21848;-75
2021/11/14 06:59:51;;;;;;;52.17;26.87;;;;;;;1.77;100.00;101471.20;1734111;82;21904;-75
2021/11/14 07:02:57;;;;;;;41.28;23.12;;;;;;;1.87;100.00;101474.20;1765425;80;21227;-75
2021/11/14 07:06:02;;;;;;;41.42;22.75;;;;;;;1.98;100.00;101474.45;1755741;81;21340;-76
2021/11/14 07:09:09;;;;;;;49.95;23.62;;;;;;;2.08;100.00;101471.19;1764488;81;21290;-76
2021/11/14 07:12:15;;;;;;;51.98;25.82;;;;;;;2.21;100.00;101479.80;1764799;81;21124;-76
2021/11/14 07:15:22;;;;;;;43.35;23.45;;;;;;;2.32;100.00;101474.21;1764949;81;21282;-76
2021/11/14 07:18:27;;;;;;;41.98;23.92;;;;;;;2.40;100.00;101479.53;1763426;81;21368;-76
2021/11/14 07:21:33;;;;;;;40.83;22.22;;;;;;;2.47;100.00;101459.75;1764689;81;21330;-75
2021/11/14 07:24:38;;;;;;;47.85;22.60;;;;;;;2.56;100.00;101465.44;1764506;81;21300;-76
2021/11/14 07:27:46;;;;;;;60.25;39.73;;;;;;;2.70;100.00;101474.51;1757933;80;21326;-76
2021/11/14 07:30:52;;;;;;;38.70;21.55;;;;;;;2.80;100.00;101468.41;1752138;82;21322;-76
2021/11/14 07:33:58;;;;;;;42.60;21.17;;;;;;;2.90;100.00;101461.06;1751952;82;21176;-75
2021/11/14 07:37:03;;;;;;;39.50;23.87;;;;;;;3.03;100.00;101467.41;1753322;82;21294;-76
2021/11/14 07:40:08;;;;;;;63.05;48.13;;;;;;;3.19;100.00;101464.56;1753503;82;21172;-76
2021/11/14 07:43:14;;;;;;;52.75;30.55;;;;;;;3.31;100.00;101466.47;1752325;82;21306;-75
2021/11/14 07:46:19;;;;;;;50.70;29.77;;;;;;;3.43;99.34;101468.83;1753645;82;21314;-76
2021/11/14 07:49:24;;;;;;;40.10;24.20;;;;;;;3.58;99.00;101465.13;1732634;83;21432;-76
2021/11/14 07:52:31;;;;;;;54.83;33.75;;;;;;;3.72;98.41;101466.90;1732725;83;21306;-75
2021/11/14 07:55:36;;;;;;;44.33;26.93;;;;;;;3.82;97.03;101464.81;1720189;83;21910;-76
2021/11/14 07:58:41;;;;;;;46.80;30.40;;;;;;;3.92;96.03;101458.27;1688042;85;21324;-76
2021/11/14 08:01:46;;;;;;;52.88;31.75;;;;;;;4.02;95.35;101458.02;1703111;83;21355;-76
2021/11/14 08:04:52;;;;;;;40.88;21.45;;;;;;;4.10;94.16;101464.27;1738694;82;21298;-76
2021/11/14 08:07:57;;;;;;;38.00;21.48;;;;;;;4.17;93.87;101450.66;1737106;82;21362;-76
2021/11/14 08:11:03;;;;;;;37.60;20.32;;;;;;;4.28;92.77;101448.09;1738680;81;21656;-76
2021/11/14 08:14:09;;;;;;;56.23;36.23;;;;;;;4.36;91.76;101445.67;1752926;81;21216;-76
2021/11/14 08:17:15;;;;;;;44.65;27.20;;;;;;;4.45;91.16;101444.65;1754150;81;21200;-75
2021/11/14 08:20:20;;;;;;;54.77;34.27;;;;;;;4.52;90.07;101440.05;1754585;81;21585;-75
2021/11/14 08:23:28;;;;;;;68.33;41.60;;;;;;;4.62;90.14;101441.61;1754339;81;21370;-75
2021/11/14 08:26:33;;;;;;;59.15;32.53;;;;;;;4.71;89.46;101436.02;1747489;81;21322;-76
2021/11/14 08:29:39;;;;;;;71.57;41.80;;;;;;;4.81;88.76;101435.72;1718057;82;21926;-76
2021/11/14 08:32:45;;;;;;;77.08;40.63;;;;;;;4.86;88.01;101424.91;1722895;82;22339;-76
2021/11/14 08:35:51;;;;;;;61.53;30.60;;;;;;;4.94;87.41;101423.47;1755395;81;21316;-76
2021/11/14 08:38:56;;;;;;;88.33;40.55;;;;;;;4.99;86.25;101417.24;1724555;83;21685;-76
2021/11/14 08:42:03;;;;;;;88.72;46.63;;;;;;;5.02;85.84;101419.22;1755125;81;21178;-76
2021/11/14 08:45:10;;;;;;;73.55;36.03;;;;;;;5.08;85.52;101415.17;1725103;83;21268;-76
2021/11/14 08:48:16;;;;;;;82.75;53.52;;;;;;;5.16;85.93;101409.19;1754493;80;21288;-76
2021/11/14 08:51:24;;;;;;;71.95;37.15;;;;;;;5.29;86.03;101412.23;1724734;83;21311;-76
2021/11/14 08:54:31;;;;;;;53.50;30.55;;;;;;;5.40;85.21;101407.34;1754552;81;21229;-75
2021/11/14 08:57:36;;;;;;;54.88;26.20;;;;;;;5.51;85.17;101415.55;1724979;83;21326;-76
2021/11/14 09:00:42;;;;;;;62.50;28.55;;;;;;;5.62;85.24;101413.36;1753921;81;21371;-77
2021/11/14 09:03:50;;;;;;;69.92;31.30;;;;;;;5.72;84.32;101413.02;1738168;82;21214;-74
2021/11/14 09:06:56;;;;;;;70.62;28.77;;;;;;;5.75;83.18;101403.30;1768676;81;21878;-74
2021/11/14 09:10:01;;;;;;;58.80;27.70;;;;;;;5.76;83.72;101411.80;1766968;81;21866;-75
2021/11/14 09:13:07;;;;;;;55.75;28.23;;;;;;;5.81;83.84;101407.38;1768684;81;21307;-74
2021/11/14 09:16:13;;;;;;;77.03;35.35;;;;;;;5.87;83.86;101401.46;1766850;81;21735;-75
2021/11/14 09:19:18;;;;;;;77.87;36.00;;;;;;;5.94;84.14;101398.69;1767452;81;21968;-77
2021/11/14 09:22:24;;;;;;;89.90;37.90;;;;;;;6.07;84.29;101390.42;1768448;81;21347;-77
2021/11/14 09:25:30;;;;;;;83.12;38.00;;;;;;;6.17;83.50;101386.02;1767903;81;21330;-77
2021/11/14 09:28:34;;;;;;;62.25;29.18;;;;;;;6.24;82.23;101383.16;1768075;81;21874;-76
2021/11/14 09:31:40;;;;;;;72.00;31.35;;;;;;;6.31;82.33;101379.48;1757176;81;21241;-76
2021/11/14 09:34:45;;;;;;;87.85;37.15;;;;;;;6.38;82.29;101375.27;1757558;81;21305;-77
2021/11/14 09:37:50;;;;;;;96.63;39.30;;;;;;;6.48;81.68;101374.03;1725889;83;21942;-77
2021/11/14 09:40:56;;;;;;;84.25;35.78;;;;;;;6.54;80.57;101374.42;1724836;83;21367;-76
2021/11/14 09:44:01;;;;;;;87.53;33.95;;;;;;;6.56;80.62;101366.13;1757304;81;21289;-76
2021/11/14 09:47:08;;;;;;;85.28;36.38;;;;;;;6.60;80.63;101367.11;1724016;83;21181;-75
2021/11/14 09:50:16;;;;;;;89.15;41.83;;;;;;;6.62;80.16;101362.41;1723201;83;21778;-76
2021/11/14 09:53:23;;;;;;;105.95;43.00;;;;;;;6.64;80.41;101358.22;1749510;82;21265;-76
2021/11/14 09:56:29;;;;;;;109.17;42.30;;;;;;;6.70;79.99;101359.07;1749735;82;21376;-76
2021/11/14 09:59:35;;;;;;;98.58;40.28;;;;;;;6.78;79.37;101355.23;1750497;82;21875;-76
2021/11/14 10:02:43;;;;;;;92.90;42.05;;;;;;;6.83;79.50;101352.99;1755553;81;21309;-76
2021/11/14 10:05:51;;;;;;;109.07;44.35;;;;;;;6.97;79.91;101348.27;1757839;81;21731;-76
2021/11/14 10:08:56;;;;;;;105.03;46.50;;;;;;;7.08;79.47;101353.17;1757613;81;21316;-76
2021/11/14 10:12:02;;;;;;;119.10;50.63;;;;;;;7.17;78.61;101343.38;1756160;81;21376;-76
2021/11/14 10:15:24;;;;;;;107.67;46.53;;;;;;;7.21;77.69;101335.33;1756117;81;21586;-76
2021/11/14 10:18:31;;;;;;;116.28;48.25;;;;;;;7.26;77.80;101335.80;1757836;81;21392;-75
2021/11/14 10:21:38;;;;;;;114.30;47.85;;;;;;;7.30;77.31;101325.02;1757916;81;21321;-76
2021/11/14 10:24:43;;;;;;;133.67;50.38;;;;;;;7.33;77.09;101330.18;1757894;81;21879;-76
2021/11/14 10:27:48;;;;;;;125.70;50.65;;;;;;;7.39;76.88;101324.23;1745793;81;21340;-76
2021/11/14 10:30:54;;;;;;;128.78;54.58;;;;;;;7.47;76.67;101320.83;1756015;81;21828;-75
2021/11/14 10:34:00;;;;;;;138.35;54.77;;;;;;;7.53;76.45;101314.89;1755140;81;21195;-76
2021/11/14 10:37:05;;;;;;;122.20;53.63;;;;;;;7.57;76.00;101302.70;1784474;80;21754;-76
2021/11/14 10:40:14;;;;;;;111.90;47.15;;;;;;;7.63;75.46;101304.06;1753665;81;21199;-76
2021/11/14 10:43:21;;;;;;;105.40;44.73;;;;;;;7.65;75.52;101297.47;1786823;80;21325;-76
2021/11/14 10:46:28;;;;;;;120.72;48.25;;;;;;;7.65;75.47;101302.05;1753643;81;21711;-75
2021/11/14 10:49:33;;;;;;;110.28;45.52;;;;;;;7.66;75.52;101300.55;1783041;80;21357;-75
2021/11/14 10:52:39;;;;;;;105.15;44.30;;;;;;;7.68;75.38;101290.91;1753584;82;21291;-75
2021/11/14 10:55:56;;;;;;;83.60;35.05;;;;;;;7.69;74.85;101288.04;1751766;82;21322;-75
2021/11/14 10:59:01;;;;;;;67.27;30.27;;;;;;;7.70;74.58;101284.81;1769030;81;21315;-75
2021/11/14 11:02:12;;;;;;;57.03;27.40;;;;;;;7.76;75.27;101279.32;1768925;81;21347;-75
2021/11/14 11:05:21;;;;;;;47.35;22.05;;;;;;;7.84;74.56;101269.48;1769213;81;21311;-76
2021/11/14 11:08:29;;;;;;;41.37;19.48;;;;;;;7.89;73.96;101268.58;1768984;81;21673;-75
2021/11/14 11:11:36;;;;;;;43.45;18.35;;;;;;;7.96;73.02;101274.86;1767310;81;21336;-76
2021/11/14 11:14:41;;;;;;;41.42;19.77;;;;;;;7.98;72.46;101270.98;1768875;81;21319;-75
2021/11/14 11:17:56;;;;;;;33.38;16.85;;;;;;;8.01;72.26;101269.87;1768848;81;21300;-75
2021/11/14 11:21:05;;;;;;;38.75;21.35;;;;;;;8.04;71.78;101275.88;1768497;81;21331;-75
2021/11/14 11:24:26;;;;;;;33.48;15.70;;;;;;;8.03;71.16;101273.30;1768736;81;21311;-76
2021/11/14 11:27:31;;;;;;;28.40;15.78;;;;;;;8.06;70.86;101268.95;1768047;81;21332;-76
2021/11/14 11:30:47;;;;;;;36.33;15.23;;;;;;;8.09;70.53;101263.21;1800556;79;21395;-76
2021/11/14 11:33:55;;;;;;;34.30;18.52;;;;;;;8.12;70.63;101269.76;1718921;83;21893;-76
2021/11/14 11:37:00;;;;;;;38.45;22.67;;;;;;;8.15;70.47;101270.86;1717389;83;21335;-75
2021/11/14 11:40:05;;;;;;;22.77;14.15;;;;;;;8.16;71.14;101271.22;1718897;83;21573;-75
2021/11/14 11:43:09;;;;;;;25.10;14.85;;;;;;;8.18;70.31;101269.20;1725772;80;21232;-75
2021/11/14 11:46:19;;;;;;;31.20;14.83;;;;;;;8.20;69.64;101278.98;1746584;82;21334;-75
2021/11/14 11:49:31;;;;;;;24.10;14.15;;;;;;;8.22;69.48;101282.06;1719671;83;21306;-75
2021/11/14 11:52:39;;;;;;;25.37;15.83;;;;;;;8.21;70.38;101283.92;1718651;83;21346;-75
2021/11/14 11:55:46;;;;;;;27.20;13.98;;;;;;;8.23;70.53;101277.83;1726056;82;21842;-76
2021/11/14 11:58:57;;;;;;;25.85;13.72;;;;;;;8.28;70.39;101276.94;1718250;83;21877;-76
2021/11/14 12:02:20;;;;;;;23.20;12.37;;;;;;;8.28;69.53;101274.22;1745335;82;21305;-76
2021/11/14 12:05:26;;;;;;;35.40;16.20;;;;;;;8.29;69.08;101277.30;1746522;82;21298;-77
2021/11/14 12:08:56;;;;;;;34.50;14.93;;;;;;;8.28;68.75;101269.23;1746420;82;21361;-76
2021/11/14 12:12:01;;;;;;;19.42;11.65;;;;;;;8.26;68.84;101269.38;1745480;82;22041;-75
2021/11/14 12:15:18;;;;;;;22.32;12.10;;;;;;;8.27;69.25;101272.47;1746175;82;21195;-75
2021/11/14 12:18:23;;;;;;;22.48;12.53;;;;;;;8.29;69.71;101270.98;1745601;82;21671;-76
2021/11/14 12:21:30;;;;;;;55.05;25.02;;;;;;;8.28;69.02;101268.77;1743703;82;21329;-76
2021/11/14 12:24:38;;;;;;;80.83;37.58;;;;;;;8.27;68.31;101270.24;1744191;82;21368;-76
2021/11/14 12:27:44;;;;;;;62.75;28.15;;;;;;;8.25;68.82;101266.81;1744344;82;21376;-76
2021/11/14 12:31:05;;;;;;;94.87;42.75;;;;;;;8.20;69.08;101271.31;1744163;82;21839;-76
2021/11/14 12:34:12;;;;;;;55.90;26.60;;;;;;;8.16;68.86;101275.30;1748631;81;21221;-76
2021/11/14 12:37:20;;;;;;;61.85;27.07;;;;;;;8.14;68.40;101279.54;1755462;81;21637;-75
2021/11/14 12:40:28;;;;;;;57.17;22.17;;;;;;;8.15;67.93;101272.22;1755268;81;21383;-76
2021/11/14 12:43:37;;;;;;;37.15;17.50;;;;;;;8.16;67.63;101265.77;1754312;81;21966;-75
2021/11/14 12:46:43;;;;;;;34.98;15.95;;;;;;;8.17;67.33;101259.30;1758924;80;21817;-76
2021/11/14 12:49:49;;;;;;;32.48;13.25;;;;;;;8.17;67.04;101264.75;1779492;80;21186;-76
2021/11/14 12:53:00;;;;;;;86.65;45.28;;;;;;;8.17;67.52;101264.75;1779800;80;21321;-76
2021/11/14 12:56:06;;;;;;;99.75;42.27;;;;;;;8.18;68.07;101263.75;1768851;80;21562;-77
2021/11/14 12:59:27;;;;;;;314.77;101.78;;;;;;;8.18;67.88;101255.07;1780109;80;21320;-77
2021/11/14 13:02:33;;;;;;;517.55;199.87;;;;;;;8.19;67.38;101258.19;1780056;80;22532;-76
2021/11/14 13:05:54;;;;;;;48.55;20.23;;;;;;;8.15;67.34;101255.88;1780754;80;21304;-77
2021/11/14 13:08:59;;;;;;;18.82;10.08;;;;;;;8.13;67.33;101264.16;1781030;80;21719;-77
2021/11/14 13:12:19;;;;;;;33.73;24.63;;;;;;;8.09;67.46;101256.40;1780845;80;21373;-77
2021/11/14 13:15:25;;;;;;;25.43;20.85;;;;;;;8.05;67.58;101257.20;1781160;80;21281;-77
2021/11/14 13:18:30;;;;;;;19.90;11.85;;;;;;;8.05;67.64;101254.47;1781368;79;21941;-77
2021/11/14 13:21:39;;;;;;;21.17;11.22;;;;;;;8.04;67.76;101254.59;1781011;80;21380;-77
2021/11/14 13:24:48;;;;;;;50.15;37.78;;;;;;;8.00;68.21;101251.30;1781069;80;21686;-76
2021/11/14 13:27:53;;;;;;;33.50;19.02;;;;;;;7.94;68.38;101247.23;1780417;80;21226;-76
2021/11/14 13:30:59;;;;;;;26.55;15.95;;;;;;;7.91;68.49;101254.34;1779608;80;21940;-77
2021/11/14 13:34:15;;;;;;;24.43;17.02;;;;;;;7.88;68.67;101246.42;1777160;80;21219;-76
2021/11/14 13:37:33;;;;;;;20.32;11.97;;;;;;;7.83;68.87;101253.28;1773451;81;21285;-76
2021/11/14 13:40:38;;;;;;;48.13;37.70;;;;;;;7.78;69.06;101258.28;1774173;81;21187;-76
2021/11/14 13:43:44;;;;;;;44.83;37.10;;;;;;;7.71;69.44;101253.85;1772460;81;21873;-76
2021/11/14 13:46:49;;;;;;;26.50;15.70;;;;;;;7.65;69.78;101261.20;1773488;81;21652;-76
2021/11/14 13:49:57;;;;;;;18.55;10.08;;;;;;;7.57;70.10;101251.48;1773386;81;22002;-76
2021/11/14 13:53:16;;;;;;;19.98;9.73;;;;;;;7.48;70.65;101249.55;1772000;81;21195;-76
2021/11/14 13:56:21;;;;;;;22.98;10.70;;;;;;;7.41;71.08;101245.16;1773920;81;21897;-75
2021/11/14 13:59:26;;;;;;;20.92;11.40;;;;;;;7.35;71.32;101251.14;1773011;81;21870;-76
2021/11/14 14:02:32;;;;;;;29.55;16.15;;;;;;;7.26;71.54;101244.63;1779497;80;21869;-76
2021/11/14 14:05:37;;;;;;;29.15;12.70;;;;;;;7.18;71.86;101248.50;1786237;80;21818;-76
2021/11/14 14:08:44;;;;;;;28.80;13.75;;;;;;;7.11;72.14;101247.31;1767725;80;21171;-77
2021/11/14 14:11:51;;;;;;;26.73;13.28;;;;;;;7.03;72.39;101244.38;1786419;80;21326;-76